createdAt,value
2022-11-30T00:00:14.635Z,6.93
2022-11-30T00:05:16.198Z,6.88
2022-11-30T00:10:17.770Z,6.89
2022-11-30T00:15:20.387Z,6.88
2022-11-30T00:20:21.944Z,6.88
2022-11-30T00:25:24.844Z,6.88
2022-11-30T00:30:26.375Z,6.88
2022-11-30T00:35:27.873Z,6.95
2022-11-30T00:40:29.331Z,6.99
2022-11-30T00:45:30.768Z,6.98
2022-11-30T00:50:32.344Z,6.92
2022-11-30T00:55:33.962Z,6.95
2022-11-30T01:00:35.936Z,6.94
2022-11-30T01:05:38.937Z,6.95
2022-11-30T01:10:43.018Z,6.97
2022-11-30T01:15:44.664Z,6.95
2022-11-30T01:20:46.190Z,6.98
2022-11-30T01:25:55.231Z,6.98
2022-11-30T01:30:59.165Z,6.92
2022-11-30T01:36:12.641Z,6.91
2022-11-30T01:41:17.397Z,6.93
2022-11-30T01:46:35.788Z,6.99
2022-11-30T01:51:51.568Z,6.95
2022-11-30T01:57:02.668Z,6.92
2022-11-30T02:02:04.135Z,6.93
2022-11-30T02:07:07.830Z,6.93
2022-11-30T02:12:21.903Z,6.89
2022-11-30T02:17:53.762Z,6.88
2022-11-30T02:23:10.131Z,6.89
2022-11-30T02:28:30.412Z,6.94
2022-11-30T02:33:33.044Z,6.92
2022-11-30T02:38:34.720Z,6.88
2022-11-30T02:43:36.612Z,6.87
2022-11-30T02:49:06.100Z,6.88
2022-11-30T02:54:08.377Z,6.85
2022-11-30T02:59:09.942Z,6.81
2022-11-30T03:04:11.384Z,6.73
2022-11-30T03:09:14.213Z,6.69
2022-11-30T03:14:15.737Z,6.65
2022-11-30T03:19:17.276Z,6.63
2022-11-30T03:24:18.859Z,6.60
2022-11-30T03:29:20.336Z,6.62
2022-11-30T03:34:22.629Z,6.63
2022-11-30T03:39:24.586Z,6.63
2022-11-30T03:44:26.107Z,6.54
2022-11-30T03:49:27.576Z,6.54
2022-11-30T03:54:29.135Z,6.54
2022-11-30T03:59:30.611Z,6.55
2022-11-30T04:04:32.156Z,6.57
2022-11-30T04:09:33.660Z,6.55
2022-11-30T04:14:35.245Z,6.57
2022-11-30T04:19:36.712Z,6.60
2022-11-30T04:24:38.210Z,6.57
2022-11-30T04:29:39.663Z,6.58
2022-11-30T04:34:41.175Z,6.63
2022-11-30T04:39:42.683Z,6.66
2022-11-30T04:44:44.327Z,6.64
2022-11-30T04:49:46.001Z,6.67
2022-11-30T04:54:47.627Z,6.65
2022-11-30T04:59:49.328Z,6.66
2022-11-30T05:04:51.150Z,6.66
2022-11-30T05:09:53.909Z,6.62
2022-11-30T05:14:55.365Z,6.63
2022-11-30T05:19:56.813Z,6.61
2022-11-30T05:24:58.303Z,6.60
2022-11-30T05:29:59.799Z,6.54
2022-11-30T05:35:01.332Z,6.54
2022-11-30T05:40:02.926Z,6.59
2022-11-30T05:45:04.803Z,6.61
2022-11-30T05:50:07.090Z,6.64
2022-11-30T05:55:08.725Z,6.60
2022-11-30T06:00:10.689Z,6.58
2022-11-30T06:05:13.605Z,6.56
2022-11-30T06:10:15.148Z,6.51
2022-11-30T06:15:16.695Z,6.48
2022-11-30T06:20:18.235Z,6.49
2022-11-30T06:25:19.762Z,6.39
2022-11-30T06:30:21.320Z,6.31
2022-11-30T06:35:22.839Z,6.22
2022-11-30T06:40:24.299Z,6.13
2022-11-30T06:45:25.845Z,6.16
2022-11-30T06:50:27.364Z,6.11
2022-11-30T06:55:32.648Z,6.08
2022-11-30T07:00:34.889Z,6.04
2022-11-30T07:05:45.392Z,6.07
2022-11-30T07:10:47.486Z,6.04
2022-11-30T07:15:49.006Z,5.93
2022-11-30T07:20:50.602Z,5.81
2022-11-30T07:26:09.376Z,5.66
2022-11-30T07:31:25.032Z,5.60
2022-11-30T07:36:27.652Z,5.54
2022-11-30T07:41:29.420Z,5.50
2022-11-30T07:46:31.580Z,5.46
2022-11-30T07:51:33.644Z,5.56
2022-11-30T07:56:35.175Z,5.64
2022-11-30T08:01:37.350Z,5.64
2022-11-30T08:06:38.971Z,5.65
2022-11-30T08:11:40.526Z,5.69
2022-11-30T08:16:44.135Z,5.74
2022-11-30T08:21:45.731Z,5.81
2022-11-30T08:26:50.997Z,5.86
2022-11-30T08:31:52.460Z,6.01
2022-11-30T08:36:53.940Z,6.10
2022-11-30T08:41:55.424Z,6.26
2022-11-30T08:46:57.036Z,6.37
2022-11-30T08:57:21.211Z,6.59
2022-11-30T09:02:22.758Z,6.71
2022-11-30T09:07:24.334Z,6.78
2022-11-30T09:12:25.854Z,6.83
2022-11-30T09:17:27.388Z,6.87
2022-11-30T09:22:28.965Z,6.86
2022-11-30T09:27:34.057Z,6.87
2022-11-30T09:32:35.616Z,6.86
2022-11-30T09:37:38.773Z,6.72
2022-11-30T09:42:51.538Z,6.76
2022-11-30T09:48:02.401Z,6.75
2022-11-30T09:53:10.471Z,6.83
2022-11-30T09:58:37.443Z,6.97
2022-11-30T10:03:39.127Z,6.92
2022-11-30T10:08:58.848Z,7.09
2022-11-30T10:14:17.813Z,7.12
2022-11-30T10:19:46.851Z,7.17
2022-11-30T10:25:14.777Z,7.25
2022-11-30T10:30:22.168Z,7.30
2022-11-30T10:35:33.418Z,7.40
2022-11-30T10:40:45.293Z,7.40
2022-11-30T10:45:50.702Z,7.22
2022-11-30T10:50:53.242Z,7.18
2022-11-30T10:56:12.651Z,7.10
2022-11-30T11:01:31.131Z,7.05
2022-11-30T11:06:33.554Z,7.15
2022-11-30T11:11:39.446Z,7.20
2022-11-30T11:17:00.835Z,7.22
2022-11-30T11:22:05.667Z,7.21
2022-11-30T11:27:07.366Z,7.08
2022-11-30T11:32:19.098Z,7.08
2022-11-30T11:37:26.225Z,7.14
2022-11-30T11:42:31.367Z,7.05
2022-11-30T11:47:40.521Z,7.09
2022-11-30T11:52:41.996Z,7.11
2022-11-30T11:57:54.561Z,7.14
2022-11-30T12:03:24.814Z,7.03
2022-11-30T12:08:56.716Z,6.98
2022-11-30T12:13:58.368Z,7.01
2022-11-30T12:19:24.674Z,6.88
2022-11-30T12:24:31.947Z,6.97
2022-11-30T12:29:42.441Z,7.02
2022-11-30T12:35:08.563Z,7.03
2022-11-30T12:40:28.311Z,7.05
2022-11-30T12:45:43.679Z,7.07
2022-11-30T12:50:56.818Z,7.07
2022-11-30T12:56:01.294Z,7.00
2022-11-30T13:01:10.003Z,7.03
2022-11-30T13:06:47.610Z,7.11
2022-11-30T13:11:56.347Z,7.11
2022-11-30T13:17:06.018Z,7.05
2022-11-30T13:22:19.303Z,6.97
2022-11-30T13:27:37.362Z,7.06
2022-11-30T13:38:36.330Z,6.99
2022-11-30T13:43:31.468Z,6.94
2022-11-30T13:48:38.557Z,6.91
2022-11-30T13:53:40.828Z,6.87
2022-11-30T13:59:22.605Z,6.77
2022-11-30T14:04:32.298Z,6.72
2022-11-30T14:09:43.084Z,6.73
2022-11-30T14:14:46.977Z,6.74
2022-11-30T14:19:52.585Z,6.76
2022-11-30T14:24:55.488Z,6.78
2022-11-30T14:30:03.005Z,6.72
2022-11-30T14:35:17.039Z,6.69
2022-11-30T14:40:20.604Z,6.50
2022-11-30T14:45:31.029Z,6.50
2022-11-30T14:50:32.970Z,6.45
2022-11-30T14:56:04.525Z,6.39
2022-11-30T15:01:21.945Z,6.33
2022-11-30T15:06:30.688Z,6.26
2022-11-30T15:11:32.219Z,6.20
2022-11-30T15:16:33.798Z,6.09
2022-11-30T15:21:35.321Z,6.02
2022-11-30T15:26:46.291Z,5.89
2022-11-30T15:31:51.668Z,5.79
2022-11-30T15:36:55.909Z,5.71
2022-11-30T15:41:59.792Z,5.56
2022-11-30T15:47:02.617Z,5.44
2022-11-30T15:52:09.979Z,5.38
2022-11-30T15:57:12.079Z,5.34
2022-11-30T16:02:26.631Z,5.31
2022-11-30T16:07:31.954Z,5.22
2022-11-30T16:12:33.593Z,5.13
2022-11-30T16:17:35.122Z,5.07
2022-11-30T16:22:38.065Z,5.07
2022-11-30T16:27:39.532Z,4.97
2022-11-30T16:32:40.988Z,4.88
2022-11-30T16:37:42.560Z,4.81
2022-11-30T16:42:44.234Z,4.73
2022-11-30T16:47:45.841Z,4.64
2022-11-30T16:52:47.436Z,4.53
2022-11-30T16:57:49.634Z,4.39
2022-11-30T17:03:04.664Z,4.33
2022-11-30T17:08:06.332Z,4.30
2022-11-30T17:13:13.601Z,4.25
2022-11-30T17:18:15.127Z,4.12
2022-11-30T17:23:16.677Z,4.09
2022-11-30T17:28:18.335Z,4.27
2022-11-30T17:33:19.858Z,4.36
2022-11-30T17:38:21.317Z,4.30
2022-11-30T17:43:23.055Z,4.30
2022-11-30T17:48:24.547Z,4.20
2022-11-30T17:53:26.035Z,4.12
2022-11-30T17:58:32.544Z,4.05
2022-11-30T18:03:35.688Z,4.07
2022-11-30T18:08:38.921Z,4.16
2022-11-30T18:13:41.033Z,4.38
2022-11-30T18:18:47.654Z,4.57
2022-11-30T18:23:50.708Z,4.65
2022-11-30T18:28:57.395Z,4.74
2022-11-30T18:34:00.858Z,4.86
2022-11-30T18:39:02.741Z,4.88
2022-11-30T18:44:04.856Z,4.88
2022-11-30T18:49:06.882Z,4.85
2022-11-30T18:54:10.295Z,4.95
2022-11-30T18:59:13.960Z,5.05
2022-11-30T19:04:15.476Z,5.21
2022-11-30T19:09:18.989Z,5.38
2022-11-30T19:14:20.556Z,5.48
2022-11-30T19:19:22.141Z,5.54
2022-11-30T19:24:23.954Z,5.59
2022-11-30T19:29:25.470Z,5.64
2022-11-30T19:34:27.028Z,5.66
2022-11-30T19:39:28.525Z,5.69
2022-11-30T19:44:30.134Z,5.72
2022-11-30T19:49:31.660Z,5.73
2022-11-30T19:54:33.226Z,5.72
2022-11-30T19:59:34.696Z,5.74
2022-11-30T20:04:36.215Z,5.75
2022-11-30T20:09:38.136Z,5.78
2022-11-30T20:14:39.637Z,5.76
2022-11-30T20:19:41.117Z,5.76
2022-11-30T20:24:42.633Z,5.73
2022-11-30T20:29:44.091Z,5.75
2022-11-30T20:34:45.679Z,5.76
2022-11-30T20:39:47.268Z,5.76
2022-11-30T20:44:49.823Z,5.74
2022-11-30T20:49:51.522Z,5.71
2022-11-30T20:54:53.004Z,5.67
2022-11-30T20:59:54.500Z,5.66
2022-11-30T21:04:55.982Z,5.67
2022-11-30T21:09:58.450Z,5.63
2022-11-30T21:14:59.934Z,5.60
2022-11-30T21:20:01.785Z,5.54
2022-11-30T21:25:03.501Z,5.50
2022-11-30T21:30:06.156Z,5.48
2022-11-30T21:35:08.244Z,5.40
2022-11-30T21:40:10.832Z,5.49
2022-11-30T21:45:12.294Z,5.48
2022-11-30T21:50:13.810Z,5.47
2022-11-30T21:55:15.334Z,5.50
2022-11-30T22:00:17.162Z,5.50
2022-11-30T22:05:18.744Z,5.51
2022-11-30T22:10:20.621Z,5.51
2022-11-30T22:15:22.340Z,5.50
2022-11-30T22:20:23.876Z,5.53
2022-11-30T22:25:25.395Z,5.54
2022-11-30T22:30:26.919Z,5.55
2022-11-30T22:35:28.423Z,5.53
2022-11-30T22:40:29.897Z,5.53
2022-11-30T22:45:33.134Z,5.54
2022-11-30T22:50:35.152Z,5.54
2022-11-30T22:55:36.776Z,5.47
2022-11-30T23:00:38.372Z,5.48
2022-11-30T23:05:40.174Z,5.48
2022-11-30T23:10:41.642Z,5.45
2022-11-30T23:15:43.302Z,5.46
2022-11-30T23:20:44.870Z,5.47
2022-11-30T23:25:46.391Z,5.48
2022-11-30T23:30:47.871Z,5.51
2022-11-30T23:35:49.327Z,5.52
2022-11-30T23:40:50.803Z,5.53
2022-11-30T23:45:52.249Z,5.52
2022-11-30T23:50:54.414Z,5.53
2022-11-30T23:55:56.735Z,5.53
